sensor_id;sensor_type;location;lat;lon;timestamp;P1;durP1;ratioP1;P2;durP2;ratioP2
47053;SDS011;32811;52.382;5.270;2023-02-13T00:00:06;34.17;;;22.15;;
47053;SDS011;32811;52.382;5.270;2023-02-13T00:02:34;35.60;;;23.00;;
47053;SDS011;32811;52.382;5.270;2023-02-13T00:05:01;33.72;;;22.20;;
47053;SDS011;32811;52.382;5.270;2023-02-13T00:07:28;33.25;;;22.30;;
47053;SDS011;32811;52.382;5.270;2023-02-13T00:09:54;37.10;;;22.30;;
47053;SDS011;32811;52.382;5.270;2023-02-13T00:12:21;32.33;;;22.42;;
47053;SDS011;32811;52.382;5.270;2023-02-13T00:14:47;35.22;;;22.83;;
47053;SDS011;32811;52.382;5.270;2023-02-13T00:17:14;35.72;;;22.00;;
47053;SDS011;32811;52.382;5.270;2023-02-13T00:19:40;34.15;;;21.75;;
47053;SDS011;32811;52.382;5.270;2023-02-13T00:22:07;34.53;;;22.02;;
47053;SDS011;32811;52.382;5.270;2023-02-13T00:24:35;33.90;;;21.73;;
47053;SDS011;32811;52.382;5.270;2023-02-13T00:27:01;32.00;;;22.33;;
47053;SDS011;32811;52.382;5.270;2023-02-13T00:29:28;37.35;;;23.88;;
47053;SDS011;32811;52.382;5.270;2023-02-13T00:31:55;37.92;;;22.75;;
47053;SDS011;32811;52.382;5.270;2023-02-13T00:34:21;39.05;;;23.00;;
47053;SDS011;32811;52.382;5.270;2023-02-13T00:36:48;35.25;;;22.05;;
47053;SDS011;32811;52.382;5.270;2023-02-13T00:39:15;35.40;;;21.88;;
47053;SDS011;32811;52.382;5.270;2023-02-13T00:41:42;32.22;;;20.55;;
47053;SDS011;32811;52.382;5.270;2023-02-13T00:44:09;30.40;;;20.60;;
47053;SDS011;32811;52.382;5.270;2023-02-13T00:46:36;35.85;;;22.48;;
47053;SDS011;32811;52.382;5.270;2023-02-13T00:49:04;32.03;;;21.55;;
47053;SDS011;32811;52.382;5.270;2023-02-13T00:51:31;35.78;;;21.70;;
47053;SDS011;32811;52.382;5.270;2023-02-13T00:53:58;35.17;;;21.90;;
47053;SDS011;32811;52.382;5.270;2023-02-13T00:56:24;34.92;;;21.88;;
47053;SDS011;32811;52.382;5.270;2023-02-13T00:58:51;32.42;;;21.60;;
47053;SDS011;32811;52.382;5.270;2023-02-13T01:01:18;36.63;;;23.58;;
47053;SDS011;32811;52.382;5.270;2023-02-13T01:03:44;32.80;;;22.50;;
47053;SDS011;32811;52.382;5.270;2023-02-13T01:06:11;36.85;;;22.13;;
47053;SDS011;32811;52.382;5.270;2023-02-13T01:08:38;38.42;;;25.45;;
47053;SDS011;32811;52.382;5.270;2023-02-13T01:11:06;35.83;;;22.50;;
47053;SDS011;32811;52.382;5.270;2023-02-13T01:13:32;42.20;;;24.30;;
47053;SDS011;32811;52.382;5.270;2023-02-13T01:15:59;31.25;;;21.20;;
47053;SDS011;32811;52.382;5.270;2023-02-13T01:18:26;36.92;;;21.67;;
47053;SDS011;32811;52.382;5.270;2023-02-13T01:20:56;34.17;;;21.17;;
47053;SDS011;32811;52.382;5.270;2023-02-13T01:23:34;36.63;;;23.40;;
47053;SDS011;32811;52.382;5.270;2023-02-13T01:26:03;36.88;;;23.20;;
47053;SDS011;32811;52.382;5.270;2023-02-13T01:28:31;39.85;;;24.42;;
47053;SDS011;32811;52.382;5.270;2023-02-13T01:30:57;38.95;;;24.50;;
47053;SDS011;32811;52.382;5.270;2023-02-13T01:33:25;41.30;;;25.35;;
47053;SDS011;32811;52.382;5.270;2023-02-13T01:35:53;41.92;;;23.70;;
47053;SDS011;32811;52.382;5.270;2023-02-13T01:38:20;38.83;;;24.17;;
47053;SDS011;32811;52.382;5.270;2023-02-13T01:40:47;39.92;;;24.50;;
47053;SDS011;32811;52.382;5.270;2023-02-13T01:43:19;37.08;;;24.38;;
47053;SDS011;32811;52.382;5.270;2023-02-13T01:45:49;41.17;;;22.88;;
47053;SDS011;32811;52.382;5.270;2023-02-13T01:48:21;42.25;;;24.23;;
47053;SDS011;32811;52.382;5.270;2023-02-13T01:50:58;39.88;;;24.05;;
47053;SDS011;32811;52.382;5.270;2023-02-13T01:55:59;38.38;;;22.65;;
47053;SDS011;32811;52.382;5.270;2023-02-13T01:58:31;36.38;;;22.45;;
47053;SDS011;32811;52.382;5.270;2023-02-13T02:01:01;39.47;;;23.02;;
47053;SDS011;32811;52.382;5.270;2023-02-13T02:03:30;33.00;;;23.02;;
47053;SDS011;32811;52.382;5.270;2023-02-13T02:06:02;36.72;;;22.40;;
47053;SDS011;32811;52.382;5.270;2023-02-13T02:08:30;34.03;;;22.35;;
47053;SDS011;32811;52.382;5.270;2023-02-13T02:10:59;35.60;;;21.30;;
47053;SDS011;32811;52.382;5.270;2023-02-13T02:13:32;36.10;;;23.85;;
47053;SDS011;32811;52.382;5.270;2023-02-13T02:15:59;34.85;;;22.02;;
47053;SDS011;32811;52.382;5.270;2023-02-13T02:18:26;33.83;;;22.33;;
47053;SDS011;32811;52.382;5.270;2023-02-13T02:29:40;39.55;;;22.27;;
47053;SDS011;32811;52.382;5.270;2023-02-13T02:32:36;36.53;;;22.65;;
47053;SDS011;32811;52.382;5.270;2023-02-13T02:40:50;33.72;;;21.23;;
47053;SDS011;32811;52.382;5.270;2023-02-13T02:43:27;35.35;;;21.70;;
47053;SDS011;32811;52.382;5.270;2023-02-13T02:46:26;34.53;;;21.00;;
47053;SDS011;32811;52.382;5.270;2023-02-13T02:54:33;31.85;;;20.52;;
47053;SDS011;32811;52.382;5.270;2023-02-13T02:57:29;36.47;;;21.73;;
47053;SDS011;32811;52.382;5.270;2023-02-13T03:00:18;36.22;;;21.05;;
47053;SDS011;32811;52.382;5.270;2023-02-13T03:03:14;33.67;;;20.77;;
47053;SDS011;32811;52.382;5.270;2023-02-13T03:06:06;34.75;;;20.85;;
47053;SDS011;32811;52.382;5.270;2023-02-13T03:08:41;34.92;;;20.50;;
47053;SDS011;32811;52.382;5.270;2023-02-13T03:11:29;34.17;;;20.15;;
47053;SDS011;32811;52.382;5.270;2023-02-13T03:16:44;37.25;;;21.55;;
47053;SDS011;32811;52.382;5.270;2023-02-13T03:19:34;32.60;;;19.60;;
47053;SDS011;32811;52.382;5.270;2023-02-13T03:31:30;31.13;;;19.85;;
47053;SDS011;32811;52.382;5.270;2023-02-13T03:34:08;32.53;;;19.23;;
47053;SDS011;32811;52.382;5.270;2023-02-13T03:39:47;31.00;;;18.75;;
47053;SDS011;32811;52.382;5.270;2023-02-13T03:45:02;30.20;;;18.88;;
47053;SDS011;32811;52.382;5.270;2023-02-13T03:47:53;34.15;;;19.83;;
47053;SDS011;32811;52.382;5.270;2023-02-13T03:50:22;32.42;;;19.35;;
47053;SDS011;32811;52.382;5.270;2023-02-13T03:52:52;36.70;;;20.35;;
47053;SDS011;32811;52.382;5.270;2023-02-13T03:55:27;30.48;;;19.00;;
47053;SDS011;32811;52.382;5.270;2023-02-13T03:58:18;29.70;;;18.63;;
47053;SDS011;32811;52.382;5.270;2023-02-13T04:01:08;29.90;;;18.70;;
47053;SDS011;32811;52.382;5.270;2023-02-13T04:06:34;25.08;;;14.60;;
47053;SDS011;32811;52.382;5.270;2023-02-13T04:09:03;32.28;;;20.60;;
47053;SDS011;32811;52.382;5.270;2023-02-13T04:14:22;33.67;;;19.23;;
47053;SDS011;32811;52.382;5.270;2023-02-13T04:16:55;28.27;;;17.95;;
47053;SDS011;32811;52.382;5.270;2023-02-13T04:19:27;32.70;;;18.05;;
47053;SDS011;32811;52.382;5.270;2023-02-13T04:21:55;31.00;;;18.52;;
47053;SDS011;32811;52.382;5.270;2023-02-13T04:24:24;31.23;;;18.02;;
47053;SDS011;32811;52.382;5.270;2023-02-13T04:26:52;27.00;;;17.10;;
47053;SDS011;32811;52.382;5.270;2023-02-13T04:29:25;34.58;;;19.17;;
47053;SDS011;32811;52.382;5.270;2023-02-13T04:32:06;31.70;;;19.45;;
47053;SDS011;32811;52.382;5.270;2023-02-13T04:34:40;29.30;;;17.80;;
47053;SDS011;32811;52.382;5.270;2023-02-13T04:37:09;28.33;;;18.10;;
47053;SDS011;32811;52.382;5.270;2023-02-13T04:39:41;32.67;;;17.38;;
47053;SDS011;32811;52.382;5.270;2023-02-13T04:42:08;30.92;;;17.08;;
47053;SDS011;32811;52.382;5.270;2023-02-13T04:44:35;30.45;;;18.77;;
47053;SDS011;32811;52.382;5.270;2023-02-13T04:47:08;29.50;;;17.88;;
47053;SDS011;32811;52.382;5.270;2023-02-13T04:49:37;27.67;;;15.85;;
47053;SDS011;32811;52.382;5.270;2023-02-13T04:52:04;31.30;;;17.80;;
47053;SDS011;32811;52.382;5.270;2023-02-13T04:54:31;34.25;;;18.17;;
47053;SDS011;32811;52.382;5.270;2023-02-13T04:57:05;32.10;;;17.52;;
47053;SDS011;32811;52.382;5.270;2023-02-13T04:59:32;32.92;;;18.63;;
47053;SDS011;32811;52.382;5.270;2023-02-13T05:01:58;30.20;;;17.33;;
47053;SDS011;32811;52.382;5.270;2023-02-13T05:04:25;44.67;;;18.73;;
47053;SDS011;32811;52.382;5.270;2023-02-13T05:06:52;27.40;;;16.65;;
47053;SDS011;32811;52.382;5.270;2023-02-13T05:09:18;29.20;;;17.27;;
47053;SDS011;32811;52.382;5.270;2023-02-13T05:11:45;25.40;;;15.38;;
47053;SDS011;32811;52.382;5.270;2023-02-13T05:14:12;30.73;;;17.00;;
47053;SDS011;32811;52.382;5.270;2023-02-13T05:16:39;30.55;;;16.25;;
47053;SDS011;32811;52.382;5.270;2023-02-13T05:19:05;29.77;;;15.98;;
47053;SDS011;32811;52.382;5.270;2023-02-13T05:21:32;33.72;;;17.05;;
47053;SDS011;32811;52.382;5.270;2023-02-13T05:24:17;29.75;;;16.65;;
47053;SDS011;32811;52.382;5.270;2023-02-13T05:26:45;31.00;;;16.58;;
47053;SDS011;32811;52.382;5.270;2023-02-13T05:29:12;27.33;;;17.13;;
47053;SDS011;32811;52.382;5.270;2023-02-13T05:31:45;28.70;;;16.17;;
47053;SDS011;32811;52.382;5.270;2023-02-13T05:34:13;29.85;;;15.60;;
47053;SDS011;32811;52.382;5.270;2023-02-13T05:36:41;27.02;;;15.43;;
47053;SDS011;32811;52.382;5.270;2023-02-13T05:39:10;28.80;;;16.45;;
47053;SDS011;32811;52.382;5.270;2023-02-13T05:41:41;26.42;;;15.32;;
47053;SDS011;32811;52.382;5.270;2023-02-13T05:44:11;28.00;;;16.45;;
47053;SDS011;32811;52.382;5.270;2023-02-13T05:46:39;28.90;;;15.18;;
47053;SDS011;32811;52.382;5.270;2023-02-13T05:49:16;24.42;;;15.02;;
47053;SDS011;32811;52.382;5.270;2023-02-13T05:51:44;27.30;;;15.80;;
47053;SDS011;32811;52.382;5.270;2023-02-13T05:54:12;29.10;;;16.40;;
47053;SDS011;32811;52.382;5.270;2023-02-13T05:56:42;26.98;;;15.20;;
47053;SDS011;32811;52.382;5.270;2023-02-13T05:59:09;28.92;;;15.35;;
47053;SDS011;32811;52.382;5.270;2023-02-13T06:01:44;26.70;;;15.70;;
47053;SDS011;32811;52.382;5.270;2023-02-13T06:04:16;28.02;;;16.92;;
47053;SDS011;32811;52.382;5.270;2023-02-13T06:06:46;27.10;;;15.88;;
47053;SDS011;32811;52.382;5.270;2023-02-13T06:09:12;25.48;;;14.68;;
47053;SDS011;32811;52.382;5.270;2023-02-13T06:11:42;29.90;;;15.57;;
47053;SDS011;32811;52.382;5.270;2023-02-13T06:14:12;30.00;;;15.20;;
47053;SDS011;32811;52.382;5.270;2023-02-13T06:16:42;31.35;;;15.95;;
47053;SDS011;32811;52.382;5.270;2023-02-13T06:19:11;31.70;;;16.52;;
47053;SDS011;32811;52.382;5.270;2023-02-13T06:21:42;24.33;;;13.95;;
47053;SDS011;32811;52.382;5.270;2023-02-13T06:24:11;26.27;;;14.73;;
47053;SDS011;32811;52.382;5.270;2023-02-13T06:26:37;27.20;;;14.95;;
47053;SDS011;32811;52.382;5.270;2023-02-13T06:29:04;25.30;;;14.40;;
47053;SDS011;32811;52.382;5.270;2023-02-13T06:31:32;28.65;;;15.27;;
47053;SDS011;32811;52.382;5.270;2023-02-13T06:33:58;26.48;;;16.48;;
47053;SDS011;32811;52.382;5.270;2023-02-13T06:36:32;28.52;;;14.77;;
47053;SDS011;32811;52.382;5.270;2023-02-13T06:39:24;26.83;;;14.52;;
47053;SDS011;32811;52.382;5.270;2023-02-13T06:42:09;24.58;;;14.55;;
47053;SDS011;32811;52.382;5.270;2023-02-13T06:45:13;23.58;;;14.23;;
47053;SDS011;32811;52.382;5.270;2023-02-13T06:47:59;23.45;;;13.45;;
47053;SDS011;32811;52.382;5.270;2023-02-13T06:53:29;31.00;;;15.25;;
47053;SDS011;32811;52.382;5.270;2023-02-13T06:55:56;27.85;;;14.27;;
47053;SDS011;32811;52.382;5.270;2023-02-13T06:58:25;24.48;;;13.48;;
47053;SDS011;32811;52.382;5.270;2023-02-13T07:00:52;24.92;;;14.00;;
47053;SDS011;32811;52.382;5.270;2023-02-13T07:03:19;29.52;;;16.27;;
47053;SDS011;32811;52.382;5.270;2023-02-13T07:05:45;27.95;;;14.30;;
47053;SDS011;32811;52.382;5.270;2023-02-13T07:08:12;26.55;;;14.57;;
47053;SDS011;32811;52.382;5.270;2023-02-13T07:10:40;25.38;;;15.85;;
47053;SDS011;32811;52.382;5.270;2023-02-13T07:13:07;29.80;;;15.55;;
47053;SDS011;32811;52.382;5.270;2023-02-13T07:15:34;29.10;;;14.15;;
47053;SDS011;32811;52.382;5.270;2023-02-13T07:18:03;28.17;;;15.55;;
47053;SDS011;32811;52.382;5.270;2023-02-13T07:20:30;26.77;;;14.80;;
47053;SDS011;32811;52.382;5.270;2023-02-13T07:23:00;24.67;;;14.90;;
47053;SDS011;32811;52.382;5.270;2023-02-13T07:25:29;28.77;;;15.02;;
47053;SDS011;32811;52.382;5.270;2023-02-13T07:28:00;27.13;;;13.52;;
47053;SDS011;32811;52.382;5.270;2023-02-13T07:30:29;28.40;;;14.88;;
47053;SDS011;32811;52.382;5.270;2023-02-13T07:33:00;27.42;;;15.13;;
47053;SDS011;32811;52.382;5.270;2023-02-13T07:35:27;26.98;;;15.05;;
47053;SDS011;32811;52.382;5.270;2023-02-13T07:37:54;29.73;;;15.30;;
47053;SDS011;32811;52.382;5.270;2023-02-13T07:40:21;22.92;;;13.90;;
47053;SDS011;32811;52.382;5.270;2023-02-13T07:42:48;27.38;;;15.43;;
47053;SDS011;32811;52.382;5.270;2023-02-13T07:45:14;26.33;;;14.27;;
47053;SDS011;32811;52.382;5.270;2023-02-13T07:47:41;30.20;;;15.80;;
47053;SDS011;32811;52.382;5.270;2023-02-13T07:50:08;27.80;;;15.20;;
47053;SDS011;32811;52.382;5.270;2023-02-13T07:52:35;24.95;;;14.57;;
47053;SDS011;32811;52.382;5.270;2023-02-13T07:55:04;27.73;;;15.02;;
47053;SDS011;32811;52.382;5.270;2023-02-13T07:57:32;27.98;;;15.00;;
47053;SDS011;32811;52.382;5.270;2023-02-13T07:59:59;27.63;;;15.50;;
47053;SDS011;32811;52.382;5.270;2023-02-13T08:02:25;24.73;;;14.45;;
47053;SDS011;32811;52.382;5.270;2023-02-13T08:04:52;28.08;;;15.50;;
47053;SDS011;32811;52.382;5.270;2023-02-13T08:07:19;28.08;;;14.88;;
47053;SDS011;32811;52.382;5.270;2023-02-13T08:09:45;25.52;;;14.65;;
47053;SDS011;32811;52.382;5.270;2023-02-13T08:12:30;28.25;;;15.25;;
47053;SDS011;32811;52.382;5.270;2023-02-13T08:15:00;24.80;;;14.57;;
47053;SDS011;32811;52.382;5.270;2023-02-13T08:17:26;22.65;;;14.10;;
47053;SDS011;32811;52.382;5.270;2023-02-13T08:19:53;28.00;;;15.75;;
47053;SDS011;32811;52.382;5.270;2023-02-13T08:22:20;29.23;;;15.55;;
47053;SDS011;32811;52.382;5.270;2023-02-13T08:24:46;28.83;;;15.77;;
47053;SDS011;32811;52.382;5.270;2023-02-13T08:27:17;28.58;;;15.18;;
47053;SDS011;32811;52.382;5.270;2023-02-13T08:29:44;28.05;;;14.77;;
47053;SDS011;32811;52.382;5.270;2023-02-13T08:32:10;30.35;;;16.05;;
47053;SDS011;32811;52.382;5.270;2023-02-13T08:34:37;31.60;;;16.40;;
47053;SDS011;32811;52.382;5.270;2023-02-13T08:37:04;24.10;;;14.25;;
47053;SDS011;32811;52.382;5.270;2023-02-13T08:39:31;29.35;;;15.82;;
47053;SDS011;32811;52.382;5.270;2023-02-13T08:41:57;30.73;;;16.65;;
47053;SDS011;32811;52.382;5.270;2023-02-13T08:44:24;27.58;;;14.82;;
47053;SDS011;32811;52.382;5.270;2023-02-13T08:46:51;29.23;;;16.10;;
47053;SDS011;32811;52.382;5.270;2023-02-13T08:49:17;28.33;;;16.20;;
47053;SDS011;32811;52.382;5.270;2023-02-13T08:51:44;30.92;;;17.00;;
47053;SDS011;32811;52.382;5.270;2023-02-13T08:54:11;31.92;;;17.05;;
47053;SDS011;32811;52.382;5.270;2023-02-13T08:56:37;28.27;;;15.63;;
47053;SDS011;32811;52.382;5.270;2023-02-13T08:59:04;29.27;;;16.45;;
47053;SDS011;32811;52.382;5.270;2023-02-13T09:01:30;28.63;;;15.13;;
47053;SDS011;32811;52.382;5.270;2023-02-13T09:03:57;28.17;;;15.75;;
47053;SDS011;32811;52.382;5.270;2023-02-13T09:06:24;33.03;;;16.13;;
47053;SDS011;32811;52.382;5.270;2023-02-13T09:08:54;28.35;;;16.83;;
47053;SDS011;32811;52.382;5.270;2023-02-13T09:11:21;26.85;;;15.55;;
47053;SDS011;32811;52.382;5.270;2023-02-13T09:13:51;28.35;;;15.93;;
47053;SDS011;32811;52.382;5.270;2023-02-13T09:16:18;27.67;;;17.05;;
47053;SDS011;32811;52.382;5.270;2023-02-13T09:18:46;29.50;;;15.70;;
47053;SDS011;32811;52.382;5.270;2023-02-13T09:21:13;27.27;;;16.48;;
47053;SDS011;32811;52.382;5.270;2023-02-13T09:23:43;29.08;;;16.52;;
47053;SDS011;32811;52.382;5.270;2023-02-13T09:26:10;32.10;;;16.85;;
47053;SDS011;32811;52.382;5.270;2023-02-13T09:28:39;27.42;;;16.95;;
47053;SDS011;32811;52.382;5.270;2023-02-13T09:31:08;26.60;;;16.02;;
47053;SDS011;32811;52.382;5.270;2023-02-13T09:33:36;28.58;;;17.38;;
47053;SDS011;32811;52.382;5.270;2023-02-13T09:36:04;29.95;;;16.40;;
47053;SDS011;32811;52.382;5.270;2023-02-13T09:38:31;33.20;;;18.00;;
47053;SDS011;32811;52.382;5.270;2023-02-13T09:41:06;34.00;;;16.85;;
47053;SDS011;32811;52.382;5.270;2023-02-13T09:44:22;29.88;;;17.58;;
47053;SDS011;32811;52.382;5.270;2023-02-13T09:50:18;26.67;;;16.23;;
47053;SDS011;32811;52.382;5.270;2023-02-13T09:52:54;29.38;;;16.90;;
47053;SDS011;32811;52.382;5.270;2023-02-13T09:58:11;28.25;;;17.10;;
47053;SDS011;32811;52.382;5.270;2023-02-13T10:00:47;28.13;;;17.23;;
47053;SDS011;32811;52.382;5.270;2023-02-13T10:03:28;32.80;;;19.00;;
47053;SDS011;32811;52.382;5.270;2023-02-13T10:08:33;29.25;;;18.05;;
47053;SDS011;32811;52.382;5.270;2023-02-13T10:11:37;29.65;;;17.23;;
47053;SDS011;32811;52.382;5.270;2023-02-13T10:17:08;30.88;;;18.50;;
47053;SDS011;32811;52.382;5.270;2023-02-13T10:22:42;29.33;;;17.80;;
47053;SDS011;32811;52.382;5.270;2023-02-13T10:25:15;26.35;;;16.58;;
47053;SDS011;32811;52.382;5.270;2023-02-13T10:27:48;27.00;;;16.65;;
47053;SDS011;32811;52.382;5.270;2023-02-13T10:30:21;27.52;;;16.90;;
47053;SDS011;32811;52.382;5.270;2023-02-13T10:38:36;24.95;;;16.60;;
47053;SDS011;32811;52.382;5.270;2023-02-13T10:41:26;22.63;;;14.65;;
47053;SDS011;32811;52.382;5.270;2023-02-13T10:47:08;25.23;;;17.23;;
47053;SDS011;32811;52.382;5.270;2023-02-13T10:49:50;26.48;;;17.10;;
47053;SDS011;32811;52.382;5.270;2023-02-13T11:03:43;24.95;;;17.05;;
47053;SDS011;32811;52.382;5.270;2023-02-13T11:06:13;30.65;;;19.05;;
47053;SDS011;32811;52.382;5.270;2023-02-13T11:08:44;28.88;;;18.88;;
47053;SDS011;32811;52.382;5.270;2023-02-13T11:11:33;26.08;;;17.55;;
47053;SDS011;32811;52.382;5.270;2023-02-13T11:14:08;29.27;;;18.48;;
47053;SDS011;32811;52.382;5.270;2023-02-13T11:16:39;28.95;;;18.90;;
47053;SDS011;32811;52.382;5.270;2023-02-13T11:22:12;25.85;;;16.70;;
47053;SDS011;32811;52.382;5.270;2023-02-13T11:24:41;28.45;;;17.98;;
47053;SDS011;32811;52.382;5.270;2023-02-13T11:27:21;24.15;;;17.88;;
47053;SDS011;32811;52.382;5.270;2023-02-13T11:29:53;26.30;;;17.30;;
47053;SDS011;32811;52.382;5.270;2023-02-13T11:32:24;26.35;;;18.17;;
47053;SDS011;32811;52.382;5.270;2023-02-13T11:34:52;24.00;;;16.58;;
47053;SDS011;32811;52.382;5.270;2023-02-13T11:39:50;26.48;;;17.70;;
47053;SDS011;32811;52.382;5.270;2023-02-13T11:42:29;26.52;;;17.50;;
47053;SDS011;32811;52.382;5.270;2023-02-13T11:44:59;26.15;;;18.60;;
47053;SDS011;32811;52.382;5.270;2023-02-13T11:47:38;27.23;;;17.17;;
47053;SDS011;32811;52.382;5.270;2023-02-13T11:50:27;26.98;;;18.15;;
47053;SDS011;32811;52.382;5.270;2023-02-13T11:55:42;23.70;;;17.42;;
47053;SDS011;32811;52.382;5.270;2023-02-13T12:00:39;25.98;;;17.38;;
47053;SDS011;32811;52.382;5.270;2023-02-13T12:06:01;24.50;;;16.98;;
47053;SDS011;32811;52.382;5.270;2023-02-13T12:08:35;26.40;;;18.90;;
47053;SDS011;32811;52.382;5.270;2023-02-13T12:11:06;23.02;;;16.83;;
47053;SDS011;32811;52.382;5.270;2023-02-13T12:13:48;23.67;;;18.15;;
47053;SDS011;32811;52.382;5.270;2023-02-13T12:19:12;26.95;;;18.13;;
47053;SDS011;32811;52.382;5.270;2023-02-13T12:25:06;23.92;;;16.42;;
47053;SDS011;32811;52.382;5.270;2023-02-13T12:27:47;23.60;;;16.10;;
47053;SDS011;32811;52.382;5.270;2023-02-13T12:49:35;29.05;;;17.17;;
47053;SDS011;32811;52.382;5.270;2023-02-13T13:00:16;20.92;;;16.00;;
47053;SDS011;32811;52.382;5.270;2023-02-13T13:14:03;23.67;;;16.00;;
47053;SDS011;32811;52.382;5.270;2023-02-13T13:16:44;22.92;;;16.08;;
47053;SDS011;32811;52.382;5.270;2023-02-13T13:22:04;20.75;;;14.77;;
47053;SDS011;32811;52.382;5.270;2023-02-13T13:27:30;21.23;;;15.13;;
47053;SDS011;32811;52.382;5.270;2023-02-13T13:30:03;21.85;;;14.00;;
47053;SDS011;32811;52.382;5.270;2023-02-13T13:32:38;20.73;;;14.80;;
47053;SDS011;32811;52.382;5.270;2023-02-13T13:35:11;21.10;;;13.30;;
47053;SDS011;32811;52.382;5.270;2023-02-13T13:38:03;20.17;;;14.07;;
47053;SDS011;32811;52.382;5.270;2023-02-13T13:51:25;20.35;;;13.93;;
47053;SDS011;32811;52.382;5.270;2023-02-13T13:59:17;18.70;;;12.63;;
47053;SDS011;32811;52.382;5.270;2023-02-13T14:04:59;21.95;;;13.48;;
47053;SDS011;32811;52.382;5.270;2023-02-13T14:07:30;19.98;;;13.13;;
47053;SDS011;32811;52.382;5.270;2023-02-13T14:10:02;23.45;;;13.88;;
47053;SDS011;32811;52.382;5.270;2023-02-13T14:13:36;20.77;;;14.10;;
47053;SDS011;32811;52.382;5.270;2023-02-13T14:17:00;20.08;;;13.55;;
47053;SDS011;32811;52.382;5.270;2023-02-13T14:24:54;21.90;;;13.02;;
47053;SDS011;32811;52.382;5.270;2023-02-13T14:27:26;22.90;;;11.90;;
47053;SDS011;32811;52.382;5.270;2023-02-13T14:29:55;18.67;;;12.75;;
47053;SDS011;32811;52.382;5.270;2023-02-13T14:32:30;17.90;;;12.73;;
47053;SDS011;32811;52.382;5.270;2023-02-13T14:35:03;19.05;;;12.75;;
47053;SDS011;32811;52.382;5.270;2023-02-13T14:37:49;19.50;;;12.93;;
47053;SDS011;32811;52.382;5.270;2023-02-13T14:42:45;19.48;;;12.60;;
47053;SDS011;32811;52.382;5.270;2023-02-13T14:45:18;20.95;;;13.52;;
47053;SDS011;32811;52.382;5.270;2023-02-13T14:47:49;17.88;;;11.45;;
47053;SDS011;32811;52.382;5.270;2023-02-13T14:50:21;16.75;;;11.45;;
47053;SDS011;32811;52.382;5.270;2023-02-13T14:52:52;16.92;;;12.45;;
47053;SDS011;32811;52.382;5.270;2023-02-13T14:55:29;16.70;;;11.57;;
47053;SDS011;32811;52.382;5.270;2023-02-13T14:58:03;18.48;;;12.07;;
47053;SDS011;32811;52.382;5.270;2023-02-13T15:00:42;17.98;;;12.68;;
47053;SDS011;32811;52.382;5.270;2023-02-13T15:03:33;16.92;;;11.23;;
47053;SDS011;32811;52.382;5.270;2023-02-13T15:06:04;16.85;;;12.00;;
47053;SDS011;32811;52.382;5.270;2023-02-13T15:08:43;14.95;;;10.57;;
47053;SDS011;32811;52.382;5.270;2023-02-13T15:11:30;20.58;;;12.65;;
47053;SDS011;32811;52.382;5.270;2023-02-13T15:14:29;21.58;;;13.35;;
47053;SDS011;32811;52.382;5.270;2023-02-13T15:17:02;18.05;;;12.43;;
47053;SDS011;32811;52.382;5.270;2023-02-13T15:19:33;17.77;;;11.82;;
47053;SDS011;32811;52.382;5.270;2023-02-13T15:22:03;15.05;;;11.40;;
47053;SDS011;32811;52.382;5.270;2023-02-13T15:24:36;18.63;;;12.52;;
47053;SDS011;32811;52.382;5.270;2023-02-13T15:27:15;18.88;;;12.32;;
47053;SDS011;32811;52.382;5.270;2023-02-13T15:29:54;17.40;;;12.75;;
47053;SDS011;32811;52.382;5.270;2023-02-13T15:32:41;17.08;;;12.40;;
47053;SDS011;32811;52.382;5.270;2023-02-13T15:35:27;19.95;;;12.57;;
47053;SDS011;32811;52.382;5.270;2023-02-13T15:37:56;18.67;;;12.82;;
47053;SDS011;32811;52.382;5.270;2023-02-13T15:40:30;19.75;;;12.38;;
47053;SDS011;32811;52.382;5.270;2023-02-13T15:43:01;17.42;;;12.68;;
47053;SDS011;32811;52.382;5.270;2023-02-13T15:45:28;16.23;;;12.55;;
47053;SDS011;32811;52.382;5.270;2023-02-13T15:47:55;19.70;;;13.80;;
47053;SDS011;32811;52.382;5.270;2023-02-13T15:52:56;20.92;;;13.05;;
47053;SDS011;32811;52.382;5.270;2023-02-13T15:55:26;18.52;;;13.43;;
47053;SDS011;32811;52.382;5.270;2023-02-13T15:57:56;20.02;;;12.23;;
47053;SDS011;32811;52.382;5.270;2023-02-13T16:00:27;17.92;;;13.02;;
47053;SDS011;32811;52.382;5.270;2023-02-13T16:02:57;23.20;;;13.95;;
47053;SDS011;32811;52.382;5.270;2023-02-13T16:05:29;19.00;;;12.27;;
47053;SDS011;32811;52.382;5.270;2023-02-13T16:16:30;18.20;;;12.90;;
47053;SDS011;32811;52.382;5.270;2023-02-13T16:19:15;19.55;;;12.88;;
47053;SDS011;32811;52.382;5.270;2023-02-13T16:29:37;22.48;;;13.60;;
47053;SDS011;32811;52.382;5.270;2023-02-13T16:32:15;17.70;;;11.77;;
47053;SDS011;32811;52.382;5.270;2023-02-13T16:38:32;21.98;;;13.13;;
47053;SDS011;32811;52.382;5.270;2023-02-13T16:41:05;19.98;;;13.18;;
47053;SDS011;32811;52.382;5.270;2023-02-13T16:48:59;21.60;;;13.70;;
47053;SDS011;32811;52.382;5.270;2023-02-13T16:51:47;18.58;;;13.02;;
47053;SDS011;32811;52.382;5.270;2023-02-13T16:57:30;21.85;;;11.77;;
47053;SDS011;32811;52.382;5.270;2023-02-13T17:02:50;16.77;;;12.05;;
47053;SDS011;32811;52.382;5.270;2023-02-13T17:05:21;19.15;;;13.20;;
47053;SDS011;32811;52.382;5.270;2023-02-13T17:07:50;17.08;;;12.50;;
47053;SDS011;32811;52.382;5.270;2023-02-13T17:10:28;16.58;;;11.57;;
47053;SDS011;32811;52.382;5.270;2023-02-13T17:13:12;20.30;;;12.82;;
47053;SDS011;32811;52.382;5.270;2023-02-13T17:15:43;22.27;;;14.43;;
47053;SDS011;32811;52.382;5.270;2023-02-13T17:18:15;19.83;;;13.35;;
47053;SDS011;32811;52.382;5.270;2023-02-13T17:20:42;27.52;;;13.10;;
47053;SDS011;32811;52.382;5.270;2023-02-13T17:23:13;29.73;;;13.80;;
47053;SDS011;32811;52.382;5.270;2023-02-13T17:25:45;22.23;;;12.02;;
47053;SDS011;32811;52.382;5.270;2023-02-13T17:28:31;33.45;;;13.20;;
47053;SDS011;32811;52.382;5.270;2023-02-13T17:34:10;29.48;;;15.25;;
47053;SDS011;32811;52.382;5.270;2023-02-13T17:36:37;18.15;;;12.10;;
47053;SDS011;32811;52.382;5.270;2023-02-13T17:39:06;22.23;;;13.27;;
47053;SDS011;32811;52.382;5.270;2023-02-13T17:41:33;20.98;;;12.60;;
47053;SDS011;32811;52.382;5.270;2023-02-13T17:43:59;22.75;;;13.60;;
47053;SDS011;32811;52.382;5.270;2023-02-13T17:46:26;22.42;;;14.57;;
47053;SDS011;32811;52.382;5.270;2023-02-13T17:48:53;25.08;;;14.18;;
47053;SDS011;32811;52.382;5.270;2023-02-13T17:51:19;31.17;;;19.25;;
47053;SDS011;32811;52.382;5.270;2023-02-13T17:54:10;29.00;;;18.65;;
47053;SDS011;32811;52.382;5.270;2023-02-13T17:57:12;23.27;;;15.00;;
47053;SDS011;32811;52.382;5.270;2023-02-13T18:00:02;26.05;;;16.65;;
47053;SDS011;32811;52.382;5.270;2023-02-13T18:02:38;27.25;;;15.63;;
47053;SDS011;32811;52.382;5.270;2023-02-13T18:05:04;21.75;;;14.25;;
47053;SDS011;32811;52.382;5.270;2023-02-13T18:07:31;22.70;;;13.95;;
47053;SDS011;32811;52.382;5.270;2023-02-13T18:09:58;21.65;;;13.68;;
47053;SDS011;32811;52.382;5.270;2023-02-13T18:12:37;26.40;;;15.75;;
47053;SDS011;32811;52.382;5.270;2023-02-13T18:15:04;21.73;;;13.55;;
47053;SDS011;32811;52.382;5.270;2023-02-13T18:17:31;23.92;;;12.85;;
47053;SDS011;32811;52.382;5.270;2023-02-13T18:20:00;22.92;;;14.38;;
47053;SDS011;32811;52.382;5.270;2023-02-13T18:22:27;20.50;;;13.27;;